createdAt,value
2022-10-23T00:00:37.988Z,100828.94
2022-10-23T00:03:05.264Z,100819.81
2022-10-23T00:05:31.685Z,100818.13
2022-10-23T00:07:59.955Z,100822.50
2022-10-23T00:10:27.960Z,100820.63
2022-10-23T00:12:54.905Z,100815.44
2022-10-23T00:15:23.224Z,100816.28
2022-10-23T00:17:50.227Z,100811.88
2022-10-23T00:20:17.353Z,100812.91
2022-10-23T00:22:43.809Z,100813.06
2022-10-23T00:25:11.062Z,100817.66
2022-10-23T00:27:37.453Z,100823.25
2022-10-23T00:30:05.140Z,100833.38
2022-10-23T00:34:58.739Z,100834.09
2022-10-23T00:37:25.292Z,100830.72
2022-10-23T00:39:51.806Z,100825.47
2022-10-23T00:42:20.935Z,100822.31
2022-10-23T00:44:47.229Z,100826.22
2022-10-23T00:47:14.014Z,100818.47
2022-10-23T00:49:42.786Z,100819.66
2022-10-23T00:52:13.084Z,100826.25
2022-10-23T00:54:42.727Z,100819.72
2022-10-23T00:57:14.785Z,100818.22
2022-10-23T00:59:41.552Z,100818.75
2022-10-23T01:02:08.891Z,100816.41
2022-10-23T01:04:36.337Z,100804.97
2022-10-23T01:07:13.786Z,100808.84
2022-10-23T01:10:03.225Z,100814.41
2022-10-23T01:12:50.650Z,100811.06
2022-10-23T01:15:38.042Z,100810.41
2022-10-23T01:18:12.475Z,100816.16
2022-10-23T01:20:50.626Z,100818.19
2022-10-23T01:23:32.410Z,100821.91
2022-10-23T01:26:11.219Z,100824.78
2022-10-23T01:28:53.364Z,100826.63
2022-10-23T01:31:30.558Z,100830.34
2022-10-23T01:34:03.600Z,100825.97
2022-10-23T01:36:32.480Z,100812.47
2022-10-23T01:41:41.610Z,100813.50
2022-10-23T01:44:20.315Z,100814.50
2022-10-23T01:46:49.786Z,100808.44
2022-10-23T01:49:17.598Z,100806.78
2022-10-23T01:51:48.746Z,100808.63
2022-10-23T01:54:16.758Z,100800.06
2022-10-23T01:56:46.467Z,100791.13
2022-10-23T01:59:19.574Z,100791.31
2022-10-23T02:01:50.906Z,100794.19
2022-10-23T02:04:33.662Z,100792.31
2022-10-23T02:07:00.051Z,100792.50
2022-10-23T02:09:26.504Z,100789.81
2022-10-23T02:12:01.960Z,100788.78
2022-10-23T02:14:50.035Z,100778.81
2022-10-23T02:17:36.647Z,100781.53
2022-10-23T02:20:15.906Z,100781.53
2022-10-23T02:22:55.529Z,100781.53
2022-10-23T02:25:31.126Z,100776.13
2022-10-23T02:28:01.779Z,100767.22
2022-10-23T02:30:29.959Z,100764.72
2022-10-23T02:32:57.628Z,100766.53
2022-10-23T02:35:25.329Z,100759.31
2022-10-23T02:37:59.803Z,100758.44
2022-10-23T02:40:38.629Z,100763.00
2022-10-23T02:43:17.439Z,100759.47
2022-10-23T02:45:55.539Z,100757.63
2022-10-23T02:48:41.639Z,100742.47
2022-10-23T02:51:35.717Z,100730.66
2022-10-23T02:54:09.860Z,100723.38
2022-10-23T02:57:01.092Z,100723.59
2022-10-23T02:59:36.659Z,100720.69
2022-10-23T03:02:08.642Z,100719.88
2022-10-23T03:04:37.973Z,100714.47
2022-10-23T03:07:04.470Z,100711.97
2022-10-23T03:09:31.003Z,100717.38
2022-10-23T03:11:57.474Z,100722.75
2022-10-23T03:14:23.821Z,100724.59
2022-10-23T03:16:50.147Z,100721.88
2022-10-23T03:19:16.601Z,100720.22
2022-10-23T03:21:42.918Z,100721.88
2022-10-23T03:24:09.237Z,100716.50
2022-10-23T03:26:35.622Z,100719.19
2022-10-23T03:29:01.951Z,100711.78
2022-10-23T03:31:28.289Z,100709.91
2022-10-23T03:33:54.724Z,100710.78
2022-10-23T03:36:21.171Z,100706.22
2022-10-23T03:38:47.515Z,100705.03
2022-10-23T03:41:13.852Z,100708.38
2022-10-23T03:43:40.279Z,100714.41
2022-10-23T03:46:09.659Z,100713.41
2022-10-23T03:48:39.124Z,100707.66
2022-10-23T03:51:06.429Z,100709.31
2022-10-23T03:53:32.867Z,100707.28
2022-10-23T03:55:59.350Z,100699.88
2022-10-23T03:58:25.728Z,100696.97
2022-10-23T04:00:52.071Z,100688.88
2022-10-23T04:03:18.461Z,100684.16
2022-10-23T04:05:44.856Z,100690.38
2022-10-23T04:08:11.723Z,100685.84
2022-10-23T04:10:39.737Z,100680.44
2022-10-23T04:13:06.281Z,100700.84
2022-10-23T04:15:32.875Z,100696.44
2022-10-23T04:17:59.203Z,100697.09
2022-10-23T04:20:25.754Z,100696.06
2022-10-23T04:22:52.119Z,100686.97
2022-10-23T04:25:18.457Z,100675.16
2022-10-23T04:27:45.189Z,100672.28
2022-10-23T04:30:12.245Z,100672.28
2022-10-23T04:32:38.687Z,100669.38
2022-10-23T04:35:05.765Z,100671.91
2022-10-23T04:37:32.303Z,100671.91
2022-10-23T04:39:58.713Z,100664.66
2022-10-23T04:42:25.053Z,100660.09
2022-10-23T04:44:51.499Z,100659.94
2022-10-23T04:47:17.821Z,100665.31
2022-10-23T04:49:44.134Z,100657.22
2022-10-23T04:52:10.559Z,100659.09
2022-10-23T04:54:37.919Z,100672.59
2022-10-23T04:57:04.576Z,100672.59
2022-10-23T04:59:30.966Z,100662.78
2022-10-23T05:01:57.377Z,100677.13
2022-10-23T05:04:23.735Z,100673.41
2022-10-23T05:06:50.205Z,100669.88
2022-10-23T05:09:16.575Z,100660.09
2022-10-23T05:11:42.888Z,100652.84
2022-10-23T05:14:09.559Z,100645.78
2022-10-23T05:16:46.604Z,100643.06
2022-10-23T05:19:21.963Z,100638.72
2022-10-23T05:21:55.654Z,100633.31
2022-10-23T05:24:23.120Z,100638.72
2022-10-23T05:26:51.599Z,100629.59
2022-10-23T05:29:22.621Z,100624.19
2022-10-23T05:31:53.952Z,100625.84
2022-10-23T05:34:24.110Z,100624.03
2022-10-23T05:36:50.477Z,100622.16
2022-10-23T05:39:16.955Z,100618.41
2022-10-23T05:41:43.881Z,100612.84
2022-10-23T05:44:10.264Z,100618.03
2022-10-23T05:46:43.072Z,100606.06
2022-10-23T05:49:09.882Z,100614.81
2022-10-23T05:51:37.356Z,100617.34
2022-10-23T05:54:03.944Z,100622.34
2022-10-23T05:56:30.299Z,100615.75
2022-10-23T05:58:56.634Z,100609.16
2022-10-23T06:01:23.206Z,100609.81
2022-10-23T06:03:51.090Z,100604.88
2022-10-23T06:06:17.430Z,100595.56
2022-10-23T06:08:43.981Z,100592.66
2022-10-23T06:11:13.141Z,100582.34
2022-10-23T06:13:42.874Z,100584.72
2022-10-23T06:16:14.782Z,100597.81
2022-10-23T06:18:41.342Z,100602.22
2022-10-23T06:21:08.949Z,100601.66
2022-10-23T06:23:37.268Z,100602.31
2022-10-23T06:26:04.483Z,100601.09
2022-10-23T06:28:30.851Z,100598.00
2022-10-23T06:30:57.234Z,100595.59
2022-10-23T06:33:23.886Z,100597.91
2022-10-23T06:35:50.224Z,100593.81
2022-10-23T06:38:16.659Z,100594.28
2022-10-23T06:40:43.017Z,100588.69
2022-10-23T06:43:09.339Z,100583.56
2022-10-23T06:45:35.963Z,100572.19
2022-10-23T06:48:02.267Z,100573.66
2022-10-23T06:50:31.036Z,100585.78
2022-10-23T06:52:57.670Z,100592.66
2022-10-23T06:55:24.204Z,100585.00
2022-10-23T06:57:50.559Z,100592.75
2022-10-23T07:00:17.378Z,100586.13
2022-10-23T07:02:43.972Z,100582.00
2022-10-23T07:05:13.512Z,100590.56
2022-10-23T07:07:40.527Z,100588.34
2022-10-23T07:10:07.539Z,100596.06
2022-10-23T07:12:33.935Z,100587.56
2022-10-23T07:15:00.350Z,100586.34
2022-10-23T07:17:28.504Z,100585.78
2022-10-23T07:19:54.848Z,100584.56
2022-10-23T07:22:21.258Z,100579.59
2022-10-23T07:24:47.579Z,100571.09
2022-10-23T07:27:13.924Z,100577.78
2022-10-23T07:29:40.398Z,100571.16
2022-10-23T07:32:06.727Z,100558.09
2022-10-23T07:34:33.316Z,100560.38
2022-10-23T07:36:59.934Z,100565.22
2022-10-23T07:39:26.794Z,100567.38
2022-10-23T07:41:53.116Z,100564.09
2022-10-23T07:44:21.111Z,100559.78
2022-10-23T07:46:49.614Z,100563.75
2022-10-23T07:49:18.489Z,100554.22
2022-10-23T07:51:49.022Z,100550.94
2022-10-23T07:54:18.398Z,100545.78
2022-10-23T07:56:44.750Z,100549.56
2022-10-23T07:59:14.302Z,100541.69
2022-10-23T08:01:42.712Z,100552.75
2022-10-23T08:04:10.376Z,100552.13
2022-10-23T08:06:36.734Z,100546.78
2022-10-23T08:09:06.357Z,100549.72
2022-10-23T08:11:35.518Z,100551.63
2022-10-23T08:14:04.658Z,100554.41
2022-10-23T08:16:32.615Z,100555.25
2022-10-23T08:18:58.953Z,100543.63
2022-10-23T08:21:25.379Z,100537.41
2022-10-23T08:23:58.814Z,100529.09
2022-10-23T08:26:27.385Z,100515.81
2022-10-23T08:28:53.700Z,100523.13
2022-10-23T08:31:22.104Z,100532.13
2022-10-23T08:36:21.886Z,100545.06
2022-10-23T08:38:48.756Z,100547.81
2022-10-23T08:41:38.718Z,100544.09
2022-10-23T08:44:24.064Z,100545.97
2022-10-23T08:47:00.125Z,100545.16
2022-10-23T08:49:43.177Z,100541.63
2022-10-23T08:52:28.659Z,100537.25
2022-10-23T08:55:26.142Z,100526.44
2022-10-23T08:58:04.346Z,100524.94
2022-10-23T09:00:30.958Z,100513.50
2022-10-23T09:03:00.416Z,100511.19
2022-10-23T09:05:40.918Z,100512.03
2022-10-23T09:08:34.498Z,100510.53
2022-10-23T09:11:14.606Z,100513.47
2022-10-23T09:13:58.293Z,100506.19
2022-10-23T09:16:33.675Z,100502.03
2022-10-23T09:19:00.251Z,100494.28
2022-10-23T09:21:29.041Z,100491.97
2022-10-23T09:23:56.338Z,100481.31
2022-10-23T09:26:23.278Z,100481.53
2022-10-23T09:28:55.116Z,100476.28
2022-10-23T09:31:21.521Z,100478.59
2022-10-23T09:33:59.779Z,100469.59
2022-10-23T09:36:29.107Z,100470.00
2022-10-23T09:38:58.839Z,100471.25
2022-10-23T09:41:34.831Z,100464.13
2022-10-23T09:44:01.082Z,100461.19
2022-10-23T09:46:40.904Z,100462.19
2022-10-23T09:49:20.276Z,100462.38
2022-10-23T09:52:06.240Z,100464.47
2022-10-23T09:54:37.319Z,100462.97
2022-10-23T09:57:25.696Z,100459.41
2022-10-23T10:00:13.939Z,100459.19
2022-10-23T10:02:42.590Z,100459.13
2022-10-23T10:05:25.863Z,100444.44
2022-10-23T10:08:11.106Z,100440.63
2022-10-23T10:10:52.586Z,100439.53
2022-10-23T10:13:36.973Z,100437.00
2022-10-23T10:16:06.702Z,100439.44
2022-10-23T10:18:57.754Z,100440.25
2022-10-23T10:22:04.718Z,100451.22
2022-10-23T10:25:18.274Z,100448.00
2022-10-23T10:28:00.191Z,100431.63
2022-10-23T10:30:36.239Z,100435.94
2022-10-23T10:33:22.006Z,100430.50
2022-10-23T10:36:06.872Z,100434.81
2022-10-23T10:38:51.506Z,100420.91
2022-10-23T10:41:30.010Z,100409.94
2022-10-23T10:44:02.674Z,100401.09
2022-10-23T10:46:33.356Z,100390.13
2022-10-23T10:49:04.356Z,100386.72
2022-10-23T10:52:06.871Z,100383.91
2022-10-23T10:54:42.582Z,100380.06
2022-10-23T10:57:21.159Z,100387.31
2022-10-23T10:59:53.205Z,100388.06
2022-10-23T11:02:35.331Z,100377.91
2022-10-23T11:05:10.918Z,100376.97
2022-10-23T11:07:42.887Z,100377.13
2022-10-23T11:10:18.446Z,100361.75
2022-10-23T11:12:46.953Z,100353.94
2022-10-23T11:15:20.710Z,100344.47
2022-10-23T11:18:00.798Z,100346.75
2022-10-23T11:20:29.927Z,100340.44
2022-10-23T11:23:16.905Z,100333.47
2022-10-23T11:25:59.175Z,100329.69
2022-10-23T11:29:11.976Z,100327.56
2022-10-23T11:31:54.659Z,100328.38
2022-10-23T11:34:40.227Z,100318.09
2022-10-23T11:37:09.084Z,100316.19
2022-10-23T11:39:39.776Z,100310.25
2022-10-23T11:42:06.025Z,100301.03
2022-10-23T11:44:46.732Z,100291.31
2022-10-23T11:47:40.170Z,100282.91
2022-10-23T11:50:07.020Z,100280.16
2022-10-23T11:53:20.868Z,100269.59
2022-10-23T11:56:16.736Z,100253.84
2022-10-23T11:58:47.268Z,100257.41
2022-10-23T12:01:30.420Z,100249.00
2022-10-23T12:04:16.914Z,100245.78
2022-10-23T12:06:57.845Z,100240.69
2022-10-23T12:09:29.466Z,100224.31
2022-10-23T12:12:07.973Z,100217.00
2022-10-23T12:14:36.175Z,100216.13
2022-10-23T12:17:03.444Z,100211.75
2022-10-23T12:19:44.515Z,100209.84
2022-10-23T12:22:11.261Z,100201.66
2022-10-23T12:25:05.545Z,100202.28
2022-10-23T12:27:42.113Z,100186.13
2022-10-23T12:30:34.897Z,100175.81
2022-10-23T12:33:14.382Z,100180.44
2022-10-23T12:36:08.651Z,100176.66
2022-10-23T12:38:43.986Z,100173.91
2022-10-23T12:41:17.456Z,100164.09
2022-10-23T12:44:10.720Z,100165.75
2022-10-23T12:46:42.566Z,100160.88
2022-10-23T12:49:18.859Z,100165.84
2022-10-23T12:51:46.016Z,100170.72
2022-10-23T12:54:20.852Z,100172.97
2022-10-23T12:56:48.223Z,100172.72
2022-10-23T12:59:21.360Z,100165.97
2022-10-23T13:01:52.413Z,100165.13
2022-10-23T13:04:28.847Z,100173.66
2022-10-23T13:06:56.810Z,100165.59
2022-10-23T13:09:29.315Z,100155.25
2022-10-23T13:11:57.318Z,100146.25
2022-10-23T13:14:34.410Z,100140.09
2022-10-23T13:17:06.374Z,100130.81
2022-10-23T13:19:33.310Z,100127.59
2022-10-23T13:22:00.866Z,100125.47
2022-10-23T13:24:29.678Z,100111.13
2022-10-23T13:26:57.429Z,100108.13
2022-10-23T13:29:31.046Z,100089.63
2022-10-23T13:31:57.975Z,100078.72
2022-10-23T13:34:29.318Z,100064.00
2022-10-23T13:37:20.970Z,100065.88
2022-10-23T13:39:47.357Z,100066.97
2022-10-23T13:42:15.402Z,100079.78
2022-10-23T13:44:42.085Z,100075.16
2022-10-23T13:47:13.049Z,100074.66
2022-10-23T13:49:39.486Z,100074.66
2022-10-23T13:52:11.234Z,100065.16
2022-10-23T13:54:37.638Z,100063.84
2022-10-23T13:57:04.015Z,100063.34
2022-10-23T13:59:30.522Z,100054.09
2022-10-23T14:01:57.101Z,100051.69
2022-10-23T14:04:23.916Z,100046.81
2022-10-23T14:06:50.448Z,100041.97
2022-10-23T14:09:18.326Z,100035.19
2022-10-23T14:11:44.879Z,100025.66
2022-10-23T14:14:11.265Z,100038.22
2022-10-23T14:16:37.794Z,100036.09
2022-10-23T14:19:04.216Z,100038.81
2022-10-23T14:21:30.677Z,100022.44
2022-10-23T14:23:57.322Z,100021.34
2022-10-23T14:26:27.415Z,100026.00
2022-10-23T14:28:55.512Z,100017.22
2022-10-23T14:31:22.454Z,100015.56
2022-10-23T14:33:55.847Z,100016.97
2022-10-23T14:36:23.608Z,100016.38
2022-10-23T14:38:54.805Z,100014.75
2022-10-23T14:41:22.407Z,100011.44
2022-10-23T14:43:48.864Z,100007.28
2022-10-23T14:46:17.649Z,100004.78
2022-10-23T14:48:46.195Z,100003.66
2022-10-23T14:51:30.141Z,99998.44
2022-10-23T14:54:01.827Z,99993.47
2022-10-23T14:56:34.380Z,99978.66
2022-10-23T14:59:03.632Z,99976.41
2022-10-23T15:01:43.665Z,99985.09
2022-10-23T15:04:14.757Z,99981.44
2022-10-23T15:06:42.365Z,99979.19
2022-10-23T15:09:09.139Z,99988.94
2022-10-23T15:11:35.514Z,99982.06
2022-10-23T15:14:01.949Z,99973.56
2022-10-23T15:16:33.927Z,99975.13
2022-10-23T15:19:00.354Z,99978.56
2022-10-23T15:21:26.798Z,99961.88
2022-10-23T15:23:54.748Z,99962.38
2022-10-23T15:26:23.043Z,99965.81
2022-10-23T15:28:54.746Z,99959.53
2022-10-23T15:31:54.928Z,99954.00
2022-10-23T15:34:24.427Z,99943.00
2022-10-23T15:36:51.262Z,99945.63
2022-10-23T15:39:21.138Z,99944.47
2022-10-23T15:41:49.978Z,99938.09
2022-10-23T15:44:19.439Z,99934.41
2022-10-23T15:46:46.321Z,99937.03
2022-10-23T15:49:13.051Z,99931.50
2022-10-23T15:51:40.247Z,99936.88
2022-10-23T15:54:08.271Z,99933.75
2022-10-23T15:56:35.304Z,99924.66
2022-10-23T15:59:02.357Z,99929.75
2022-10-23T16:01:28.985Z,99916.84
2022-10-23T16:03:55.653Z,99909.41
2022-10-23T16:06:22.800Z,99911.19
2022-10-23T16:08:49.379Z,99924.47
2022-10-23T16:11:17.717Z,99920.81
2022-10-23T16:13:44.201Z,99919.03
2022-10-23T16:16:10.886Z,99916.19
2022-10-23T16:18:37.542Z,99918.81
2022-10-23T16:21:04.515Z,99910.53
2022-10-23T16:23:30.902Z,99933.06
2022-10-23T16:26:02.363Z,99949.59
2022-10-23T16:28:28.693Z,99959.31
2022-10-23T16:30:55.025Z,99963.56
2022-10-23T16:33:21.444Z,99957.53
2022-10-23T16:35:47.794Z,99949.03
2022-10-23T16:38:14.195Z,99945.72
2022-10-23T16:40:40.651Z,99947.00
2022-10-23T16:43:07.067Z,99952.66
2022-10-23T16:45:35.724Z,99953.97
2022-10-23T16:48:04.224Z,99942.53
2022-10-23T16:50:30.602Z,99943.78
2022-10-23T16:52:57.023Z,99935.84
2022-10-23T16:55:23.519Z,99930.66
2022-10-23T16:57:49.901Z,99936.31
2022-10-23T17:00:18.790Z,99941.75
2022-10-23T17:02:45.507Z,99942.84
2022-10-23T17:05:12.140Z,99951.81
2022-10-23T17:07:38.536Z,99951.81
2022-10-23T17:10:05.367Z,99951.00
2022-10-23T17:12:31.873Z,99955.59
2022-10-23T17:14:58.465Z,99960.22
2022-10-23T17:17:24.859Z,99964.00
2022-10-23T17:19:51.346Z,99968.63
2022-10-23T17:22:17.767Z,99965.06
2022-10-23T17:24:46.428Z,99968.63
2022-10-23T17:27:15.424Z,99985.78
2022-10-23T17:29:41.777Z,99991.22
2022-10-23T17:32:08.253Z,99991.22
2022-10-23T17:34:34.746Z,99995.84
2022-10-23T17:37:01.099Z,100003.13
2022-10-23T17:39:29.236Z,100013.19
2022-10-23T17:41:56.223Z,100025.97
2022-10-23T17:44:22.832Z,100030.59
2022-10-23T17:46:54.080Z,100043.97
2022-10-23T17:49:21.843Z,100064.28
2022-10-23T17:51:55.036Z,100069.72
2022-10-23T17:54:27.840Z,100075.19
2022-10-23T17:56:54.359Z,100087.38
2022-10-23T17:59:20.799Z,100084.06
2022-10-23T18:01:48.718Z,100086.78
2022-10-23T18:04:17.030Z,100094.34
2022-10-23T18:06:49.925Z,100105.22
2022-10-23T18:09:17.209Z,100095.00
2022-10-23T18:11:48.186Z,100083.53
2022-10-23T18:14:17.062Z,100064.75
2022-10-23T18:16:45.411Z,100020.59
2022-10-23T18:19:11.837Z,99982.75
2022-10-23T18:21:40.076Z,99991.97
2022-10-23T18:24:06.510Z,99978.25
2022-10-23T18:26:34.992Z,99909.66
2022-10-23T18:29:04.886Z,99833.16
2022-10-23T18:31:31.444Z,99859.16
2022-10-23T18:34:01.337Z,99852.56
2022-10-23T18:36:32.249Z,99869.81
2022-10-23T18:38:59.033Z,99883.28
2022-10-23T18:41:25.626Z,99893.16
2022-10-23T18:43:53.602Z,99890.09
2022-10-23T18:46:20.607Z,99926.97
2022-10-23T18:48:48.071Z,99915.50
2022-10-23T18:51:20.071Z,99906.13
2022-10-23T18:53:46.828Z,99910.38
2022-10-23T18:56:22.440Z,99895.38
2022-10-23T18:59:01.650Z,99896.66
2022-10-23T19:01:29.913Z,99903.56
2022-10-23T19:03:58.379Z,99903.44
2022-10-23T19:06:25.020Z,99905.53
2022-10-23T19:08:52.409Z,99914.16
2022-10-23T19:11:21.174Z,99920.88
2022-10-23T19:13:47.586Z,99912.38
2022-10-23T19:16:21.464Z,99918.88
2022-10-23T19:18:55.475Z,99904.69
2022-10-23T19:21:31.022Z,99907.88
2022-10-23T19:24:03.194Z,99928.97
2022-10-23T19:26:32.290Z,99949.28
2022-10-23T19:28:58.902Z,99950.78
2022-10-23T19:31:26.378Z,99934.72
2022-10-23T19:33:53.375Z,99929.75
2022-10-23T19:36:23.360Z,99921.81
2022-10-23T19:38:50.176Z,99912.25
2022-10-23T19:41:18.046Z,99917.06
2022-10-23T19:43:44.507Z,99904.78
2022-10-23T19:46:12.423Z,99908.56
2022-10-23T19:48:43.527Z,99897.91
2022-10-23T19:51:09.976Z,99895.44
2022-10-23T19:53:36.652Z,99888.56
2022-10-23T19:56:07.465Z,99887.75
2022-10-23T19:58:33.907Z,99885.25
2022-10-23T20:01:11.544Z,99899.03
2022-10-23T20:03:39.560Z,99891.16
2022-10-23T20:06:09.372Z,99874.84
2022-10-23T20:08:35.912Z,99864.47
2022-10-23T20:11:02.782Z,99873.63
2022-10-23T20:13:29.174Z,99887.47
2022-10-23T20:15:55.814Z,99887.91
2022-10-23T20:18:22.301Z,99886.47
2022-10-23T20:20:49.294Z,99890.22
2022-10-23T20:23:15.672Z,99887.97
2022-10-23T20:25:42.042Z,99890.91
2022-10-23T20:28:10.324Z,99897.59
2022-10-23T20:30:45.476Z,99900.56
2022-10-23T20:33:12.003Z,99898.31
2022-10-23T20:35:42.107Z,99891.44
2022-10-23T20:38:08.985Z,99891.91
2022-10-23T20:40:35.626Z,99879.81
2022-10-23T20:43:02.187Z,99891.09
2022-10-23T20:45:28.638Z,99888.84
2022-10-23T20:47:54.999Z,99893.66
2022-10-23T20:50:23.726Z,99894.09
2022-10-23T20:52:50.668Z,99904.34
2022-10-23T20:55:17.177Z,99901.03
2022-10-23T20:57:43.877Z,99894.97
2022-10-23T21:00:11.396Z,99910.44
2022-10-23T21:02:37.891Z,99901.69
2022-10-23T21:05:04.665Z,99904.19
2022-10-23T21:07:31.001Z,99905.84
2022-10-23T21:09:57.377Z,99899.13
2022-10-23T21:12:23.742Z,99900.00
2022-10-23T21:14:50.140Z,99901.44
2022-10-23T21:17:17.940Z,99904.50
2022-10-23T21:19:44.475Z,99913.25
2022-10-23T21:22:10.914Z,99931.81
2022-10-23T21:24:37.387Z,99943.28
2022-10-23T21:27:03.851Z,99957.44
2022-10-23T21:29:30.410Z,99974.97
2022-10-23T21:31:59.609Z,99984.75
2022-10-23T21:34:27.371Z,99989.13
2022-10-23T21:37:12.437Z,99991.59
2022-10-23T21:39:40.082Z,99996.81
2022-10-23T21:42:06.502Z,99996.59
2022-10-23T21:44:32.906Z,99990.94
2022-10-23T21:46:59.398Z,99988.03
2022-10-23T21:49:25.847Z,99989.66
2022-10-23T21:51:53.006Z,99975.03
2022-10-23T21:54:19.499Z,99979.63
2022-10-23T21:56:51.280Z,99989.00
2022-10-23T21:59:20.832Z,99987.31
2022-10-23T22:01:48.851Z,99972.94
2022-10-23T22:04:19.528Z,99976.47
2022-10-23T22:06:48.434Z,99961.88
2022-10-23T22:09:18.831Z,99968.94
2022-10-23T22:11:45.271Z,99954.34
2022-10-23T22:14:11.636Z,99948.91
2022-10-23T22:16:38.059Z,99948.91
2022-10-23T22:19:04.625Z,99960.81
2022-10-23T22:21:31.207Z,99967.06
2022-10-23T22:24:00.207Z,99966.47
2022-10-23T22:26:33.806Z,99966.47
2022-10-23T22:29:04.321Z,99956.03
2022-10-23T22:31:33.018Z,99960.03
2022-10-23T22:34:12.967Z,99967.81
2022-10-23T22:36:47.628Z,99956.34
2022-10-23T22:39:14.229Z,99955.75
2022-10-23T22:41:40.795Z,99958.88
2022-10-23T22:44:07.172Z,99956.63
2022-10-23T22:46:33.605Z,99958.94
2022-10-23T22:49:00.075Z,99949.34
2022-10-23T22:51:28.587Z,99955.22
2022-10-23T22:53:55.928Z,99965.09
2022-10-23T22:56:24.674Z,99957.38
2022-10-23T22:58:51.400Z,99958.06
2022-10-23T23:01:28.976Z,99970.19
2022-10-23T23:03:58.200Z,99961.06
2022-10-23T23:06:27.798Z,99970.66
2022-10-23T23:08:54.618Z,99970.28
2022-10-23T23:11:22.564Z,99969.88
2022-10-23T23:13:50.365Z,99963.25
2022-10-23T23:16:19.797Z,99966.16
2022-10-23T23:18:46.556Z,99964.97
2022-10-23T23:21:12.893Z,99958.09
2022-10-23T23:23:39.346Z,99967.50
2022-10-23T23:26:06.975Z,99963.34
2022-10-23T23:28:33.476Z,99959.19
2022-10-23T23:31:13.142Z,99956.91
2022-10-23T23:33:39.585Z,99961.09
2022-10-23T23:36:08.197Z,99972.16
2022-10-23T23:38:35.847Z,99975.09
2022-10-23T23:41:03.178Z,99977.19
2022-10-23T23:43:29.795Z,99976.13
2022-10-23T23:45:57.279Z,99977.81
2022-10-23T23:48:23.850Z,99977.38
2022-10-23T23:50:50.338Z,99964.66
2022-10-23T23:53:17.355Z,99975.88
2022-10-23T23:58:15.059Z,99965.19
